Terminal Aerodrome Forecast
Issued by NWS

Home | Current Version | Previous Version | Text Only | Print | Product List | Glossary On
Versions: 1 2 3 4 5 6 7 8 9 10 11 12 13 14 15 16 17 18 19 20 21
740
FTUS42 KKEY 191120
TAFMTH
TAF
KMTH 191120Z 1912/2012 16003KT P6SM FEW200
     FM191500 21005KT P6SM FEW025
     FM192200 31008KT P6SM FEW025
     FM200300 03007KT P6SM SKC=

USA.gov is the U.S. government's official web portal to all federal, state and local government web resources and services.